Time;durP1;ratioP1;P1;durP2;ratioP2;P2;SDS_P1;SDS_P2;PMS_P1;PMS_P2;Temp;Humidity;BMP_temperature;BMP_pressure;BME280_temperature;BME280_humidity;BME280_pressure;Samples;Min_cycle;Max_cycle;Signal;HPM_P1;HPM_P2
2022/07/30 00:00:37;;;;;;;4.05;1.95;;;;;;;;;;2310798;58;21181;-73
2022/07/30 00:03:05;;;;;;;5.60;2.47;;;;;;;;;;2475207;54;21049;-72
2022/07/30 00:05:32;;;;;;;3.80;2.83;;;;;;;;;;2312261;58;21133;-73
2022/07/30 00:07:59;;;;;;;3.97;2.10;;;;;;;;;;2312636;58;21062;-75
2022/07/30 00:10:26;;;;;;;5.68;2.87;;;;;;;;;;2312158;58;21066;-75
2022/07/30 00:12:53;;;;;;;5.95;2.67;;;;;;;;;;2312644;58;21204;-75
2022/07/30 00:15:20;;;;;;;4.40;2.20;;;;;;;;;;2312339;58;21049;-73
2022/07/30 00:17:47;;;;;;;4.43;2.20;;;;;;;;;;2312862;58;21045;-75
2022/07/30 00:20:14;;;;;;;5.35;2.40;;;;;;;;;;2312249;58;22223;-75
2022/07/30 00:22:41;;;;;;;7.60;2.62;;;;;;;;;;2312783;58;21109;-76
2022/07/30 00:25:09;;;;;;;3.25;1.95;;;;;;;;;;2312292;58;21090;-72
2022/07/30 00:27:36;;;;;;;3.62;2.25;;;;;;;;;;2312446;58;21524;-74
2022/07/30 00:30:04;;;;;;;4.03;2.62;;;;;;;;;;2352977;54;21049;-75
2022/07/30 00:32:31;;;;;;;4.75;2.78;;;;;;;;;;2312417;58;21046;-75
2022/07/30 00:34:58;;;;;;;3.47;2.10;;;;;;;;;;2312643;58;21128;-75
2022/07/30 00:37:25;;;;;;;4.35;2.70;;;;;;;;;;2312249;58;21046;-75
2022/07/30 00:39:52;;;;;;;5.00;2.60;;;;;;;;;;2312873;58;21053;-75
2022/07/30 00:42:24;;;;;;;3.95;2.30;;;;;;;;;;2312152;58;21167;-75
2022/07/30 00:44:51;;;;;;;6.57;2.70;;;;;;;;;;2312578;58;21045;-75
2022/07/30 00:47:18;;;;;;;4.53;2.15;;;;;;;;;;2312240;58;21199;-74
2022/07/30 00:49:45;;;;;;;3.05;2.65;;;;;;;;;;2316639;54;21652;-76
2022/07/30 00:52:13;;;;;;;3.60;2.45;;;;;;;;;;2312552;58;21675;-75
2022/07/30 00:54:40;;;;;;;5.53;2.92;;;;;;;;;;2318701;54;21589;-74
2022/07/30 00:57:07;;;;;;;5.53;2.40;;;;;;;;;;2312581;58;21294;-73
2022/07/30 00:59:34;;;;;;;3.90;2.25;;;;;;;;;;2312495;58;21121;-75
2022/07/30 01:02:02;;;;;;;4.28;2.65;;;;;;;;;;2312075;58;22172;-76
2022/07/30 01:04:29;;;;;;;4.40;2.70;;;;;;;;;;2312680;58;21030;-73
2022/07/30 01:06:56;;;;;;;9.52;2.50;;;;;;;;;;2312216;58;21208;-75
2022/07/30 01:09:23;;;;;;;5.70;2.70;;;;;;;;;;2312999;58;21141;-75
2022/07/30 01:11:50;;;;;;;4.40;2.53;;;;;;;;;;2312662;58;21177;-75
2022/07/30 01:14:17;;;;;;;7.22;2.65;;;;;;;;;;2553039;53;21532;-75
2022/07/30 01:16:44;;;;;;;5.80;2.12;;;;;;;;;;2310828;58;21144;-75
2022/07/30 01:22:09;;;;;;;5.35;2.62;;;;;;;;;;2312698;54;21018;-75
2022/07/30 01:24:39;;;;;;;3.33;2.33;;;;;;;;;;2313110;58;21034;-75
2022/07/30 01:27:07;;;;;;;5.53;2.65;;;;;;;;;;2312197;58;21137;-76
2022/07/30 01:29:34;;;;;;;6.70;2.80;;;;;;;;;;2312991;58;21129;-75
2022/07/30 01:32:02;;;;;;;4.72;2.40;;;;;;;;;;2312863;58;21061;-75
2022/07/30 01:34:31;;;;;;;4.40;2.05;;;;;;;;;;2311074;58;21046;-73
2022/07/30 01:36:59;;;;;;;4.90;2.33;;;;;;;;;;2311807;58;21054;-75
2022/07/30 01:39:26;;;;;;;5.70;2.53;;;;;;;;;;2312051;58;21054;-74
2022/07/30 01:41:54;;;;;;;5.12;2.53;;;;;;;;;;2324135;54;21038;-74
2022/07/30 01:44:22;;;;;;;6.37;2.40;;;;;;;;;;2312579;58;21045;-75
2022/07/30 01:46:49;;;;;;;3.33;2.30;;;;;;;;;;2312682;58;21034;-75
2022/07/30 01:49:17;;;;;;;5.15;2.10;;;;;;;;;;2365412;54;21053;-73
2022/07/30 01:51:45;;;;;;;5.93;2.40;;;;;;;;;;2310666;58;21137;-75
2022/07/30 01:54:12;;;;;;;3.70;2.33;;;;;;;;;;2312742;58;21129;-76
2022/07/30 01:56:41;;;;;;;3.50;2.33;;;;;;;;;;2312574;58;21085;-75
2022/07/30 01:59:09;;;;;;;4.97;2.47;;;;;;;;;;2312808;58;21564;-75
2022/07/30 02:01:36;;;;;;;3.53;2.40;;;;;;;;;;2312874;58;21165;-75
2022/07/30 02:04:04;;;;;;;5.90;2.33;;;;;;;;;;2313038;58;21046;-75
2022/07/30 02:06:34;;;;;;;7.28;2.28;;;;;;;;;;2310731;58;21533;-75
2022/07/30 02:09:04;;;;;;;4.12;2.12;;;;;;;;;;2312093;58;21106;-76
2022/07/30 02:14:21;;;;;;;4.07;2.70;;;;;;;;;;2313385;54;21029;-75
2022/07/30 02:16:51;;;;;;;3.33;2.40;;;;;;;;;;2312387;58;21050;-73
2022/07/30 02:19:19;;;;;;;4.32;2.53;;;;;;;;;;2312607;58;21074;-76
2022/07/30 02:21:47;;;;;;;7.45;2.53;;;;;;;;;;2309254;58;21097;-76
2022/07/30 02:24:16;;;;;;;4.45;2.30;;;;;;;;;;2312557;58;21046;-75
2022/07/30 02:26:45;;;;;;;3.80;2.45;;;;;;;;;;2311138;58;21050;-74
2022/07/30 02:29:13;;;;;;;3.50;2.33;;;;;;;;;;2312859;58;21057;-76
2022/07/30 02:31:40;;;;;;;5.35;2.50;;;;;;;;;;2311532;58;21050;-75
2022/07/30 02:34:09;;;;;;;6.45;2.60;;;;;;;;;;2312786;58;21129;-75
2022/07/30 02:36:37;;;;;;;4.75;2.40;;;;;;;;;;2311528;58;21074;-75
2022/07/30 02:39:05;;;;;;;4.47;2.30;;;;;;;;;;2337127;54;21046;-76
2022/07/30 02:41:32;;;;;;;3.50;2.47;;;;;;;;;;2312285;58;21049;-73
2022/07/30 02:44:00;;;;;;;6.82;2.58;;;;;;;;;;2312715;58;21532;-76
2022/07/30 02:46:28;;;;;;;6.10;2.50;;;;;;;;;;2311939;58;21518;-76
2022/07/30 02:48:56;;;;;;;3.67;2.50;;;;;;;;;;2312837;58;21129;-75
2022/07/30 02:51:24;;;;;;;5.18;2.90;;;;;;;;;;2312300;58;21113;-73
2022/07/30 02:53:53;;;;;;;5.97;2.53;;;;;;;;;;2312514;58;21045;-77
2022/07/30 02:56:21;;;;;;;3.87;2.78;;;;;;;;;;2312003;58;21583;-76
2022/07/30 02:58:48;;;;;;;3.87;2.33;;;;;;;;;;2346487;54;21065;-77
2022/07/30 03:01:18;;;;;;;4.93;2.60;;;;;;;;;;2312327;58;21121;-75
2022/07/30 03:03:45;;;;;;;4.25;2.95;;;;;;;;;;2311865;57;21038;-77
2022/07/30 03:06:13;;;;;;;4.05;2.53;;;;;;;;;;2312008;58;21049;-76
2022/07/30 03:08:41;;;;;;;3.60;2.60;;;;;;;;;;2312383;58;21065;-76
2022/07/30 03:11:10;;;;;;;5.62;2.50;;;;;;;;;;2311503;58;21069;-76
2022/07/30 03:13:37;;;;;;;3.92;2.40;;;;;;;;;;2315699;54;21623;-76
2022/07/30 03:16:07;;;;;;;5.62;2.75;;;;;;;;;;2311943;58;21567;-76
2022/07/30 03:18:35;;;;;;;4.10;2.15;;;;;;;;;;2312540;58;21121;-75
2022/07/30 03:21:03;;;;;;;3.58;2.42;;;;;;;;;;2333020;54;21108;-77
2022/07/30 03:23:33;;;;;;;4.70;2.87;;;;;;;;;;2312895;58;21113;-77
2022/07/30 03:26:01;;;;;;;4.65;2.30;;;;;;;;;;2313006;58;21061;-77
2022/07/30 03:28:30;;;;;;;4.15;2.80;;;;;;;;;;2312106;58;21049;-77
2022/07/30 03:30:58;;;;;;;7.70;3.03;;;;;;;;;;2316078;54;21142;-75
2022/07/30 03:33:25;;;;;;;5.60;3.03;;;;;;;;;;2312750;58;21065;-77
2022/07/30 03:35:53;;;;;;;3.55;2.60;;;;;;;;;;2312368;58;21061;-77
2022/07/30 03:38:20;;;;;;;4.65;2.60;;;;;;;;;;2313839;54;21180;-75
2022/07/30 03:40:47;;;;;;;5.00;2.70;;;;;;;;;;2312976;58;21140;-76
2022/07/30 03:43:15;;;;;;;8.48;2.83;;;;;;;;;;2313415;58;21117;-76
2022/07/30 03:45:44;;;;;;;2.83;2.17;;;;;;;;;;2311646;58;21576;-74
2022/07/30 03:48:12;;;;;;;4.32;2.55;;;;;;;;;;2312885;58;21197;-76
2022/07/30 03:50:40;;;;;;;4.45;2.55;;;;;;;;;;2312265;58;21097;-76
2022/07/30 03:53:08;;;;;;;3.37;2.42;;;;;;;;;;2373233;54;21132;-74
2022/07/30 03:55:35;;;;;;;3.28;2.33;;;;;;;;;;2311043;58;21196;-76
2022/07/30 03:58:03;;;;;;;4.30;2.70;;;;;;;;;;2388436;54;21106;-76
2022/07/30 04:00:30;;;;;;;4.40;2.83;;;;;;;;;;2398502;54;21054;-77
2022/07/30 04:02:57;;;;;;;5.40;3.08;;;;;;;;;;2311888;58;21602;-75
2022/07/30 04:05:24;;;;;;;6.35;3.10;;;;;;;;;;2312247;58;21531;-76
2022/07/30 04:07:51;;;;;;;2.70;2.47;;;;;;;;;;2340944;54;21631;-76
2022/07/30 04:10:18;;;;;;;5.12;2.70;;;;;;;;;;2312584;58;21057;-73
2022/07/30 04:12:45;;;;;;;5.28;2.50;;;;;;;;;;2311855;58;21548;-76
2022/07/30 04:15:12;;;;;;;4.47;2.70;;;;;;;;;;2312539;58;21133;-76
2022/07/30 04:17:43;;;;;;;3.90;2.70;;;;;;;;;;2312836;58;21038;-76
2022/07/30 04:20:13;;;;;;;4.85;2.83;;;;;;;;;;2321068;54;21046;-76
2022/07/30 04:22:40;;;;;;;2.78;2.42;;;;;;;;;;2313200;58;21125;-76
2022/07/30 04:25:08;;;;;;;6.03;2.70;;;;;;;;;;2312154;58;21058;-76
2022/07/30 04:27:36;;;;;;;7.90;3.10;;;;;;;;;;2312722;58;21038;-76
2022/07/30 04:30:04;;;;;;;4.60;2.90;;;;;;;;;;2310963;58;21128;-76
2022/07/30 04:32:32;;;;;;;3.75;2.70;;;;;;;;;;2312180;58;21202;-75
2022/07/30 04:34:59;;;;;;;4.65;2.80;;;;;;;;;;2311392;58;21061;-76
2022/07/30 04:37:27;;;;;;;4.15;2.70;;;;;;;;;;2311936;58;21046;-76
2022/07/30 04:39:56;;;;;;;4.18;2.60;;;;;;;;;;2403985;54;21061;-76
2022/07/30 04:42:24;;;;;;;4.75;3.00;;;;;;;;;;2313156;58;21434;-76
2022/07/30 04:44:52;;;;;;;4.72;3.00;;;;;;;;;;2311806;58;21121;-76
2022/07/30 04:47:19;;;;;;;7.37;3.15;;;;;;;;;;2311773;58;21038;-76
2022/07/30 04:49:47;;;;;;;9.15;3.30;;;;;;;;;;2311262;58;21065;-76
2022/07/30 04:52:14;;;;;;;6.72;3.20;;;;;;;;;;2312879;58;21058;-76
2022/07/30 04:54:43;;;;;;;6.15;2.90;;;;;;;;;;2311876;58;21038;-76
2022/07/30 04:57:11;;;;;;;4.55;3.10;;;;;;;;;;2312306;58;21058;-76
2022/07/30 04:59:38;;;;;;;6.22;3.33;;;;;;;;;;2421218;54;21066;-76
2022/07/30 05:02:06;;;;;;;5.97;3.00;;;;;;;;;;2382356;53;21129;-76
2022/07/30 05:04:34;;;;;;;6.32;3.42;;;;;;;;;;2311665;58;21085;-75
2022/07/30 05:07:02;;;;;;;3.65;2.85;;;;;;;;;;2311768;58;21153;-76
2022/07/30 05:09:30;;;;;;;4.10;3.10;;;;;;;;;;2312405;58;21154;-76
2022/07/30 05:11:58;;;;;;;4.53;3.08;;;;;;;;;;2312361;58;21053;-75
2022/07/30 05:14:26;;;;;;;4.57;2.83;;;;;;;;;;2312734;58;21113;-76
2022/07/30 05:16:54;;;;;;;5.28;3.22;;;;;;;;;;2311847;58;21065;-75
2022/07/30 05:19:21;;;;;;;4.00;2.55;;;;;;;;;;2451203;53;21063;-75
2022/07/30 05:21:48;;;;;;;3.55;3.10;;;;;;;;;;2332609;57;21075;-76
2022/07/30 05:24:15;;;;;;;5.95;2.95;;;;;;;;;;2332548;57;21550;-75
2022/07/30 05:26:43;;;;;;;5.57;2.92;;;;;;;;;;2331994;57;21052;-76
2022/07/30 05:29:10;;;;;;;4.35;3.00;;;;;;;;;;2332468;57;21095;-75
2022/07/30 05:31:37;;;;;;;8.50;3.30;;;;;;;;;;2332036;57;21182;-75
2022/07/30 05:34:04;;;;;;;3.12;2.60;;;;;;;;;;2331439;57;21123;-77
2022/07/30 05:36:31;;;;;;;4.12;2.87;;;;;;;;;;2330845;57;21127;-76
2022/07/30 05:38:59;;;;;;;4.57;2.87;;;;;;;;;;2329617;57;21556;-75
2022/07/30 05:41:27;;;;;;;3.75;2.90;;;;;;;;;;2331544;57;21055;-76
2022/07/30 05:43:54;;;;;;;6.00;2.78;;;;;;;;;;2575684;53;21059;-75
2022/07/30 05:46:21;;;;;;;3.20;2.47;;;;;;;;;;2329866;57;21127;-75
2022/07/30 05:48:48;;;;;;;3.10;2.35;;;;;;;;;;2332084;57;21624;-76
2022/07/30 05:51:15;;;;;;;4.20;2.58;;;;;;;;;;2331276;57;21357;-76
2022/07/30 05:53:42;;;;;;;4.65;2.75;;;;;;;;;;2332729;57;21071;-76
2022/07/30 05:56:09;;;;;;;5.35;2.70;;;;;;;;;;2332099;57;21673;-75
2022/07/30 05:58:36;;;;;;;3.22;2.60;;;;;;;;;;2331904;57;21047;-76
2022/07/30 06:01:03;;;;;;;6.53;3.08;;;;;;;;;;2332020;57;21079;-74
2022/07/30 06:03:31;;;;;;;3.83;2.58;;;;;;;;;;2329672;57;21050;-75
2022/07/30 06:05:58;;;;;;;4.45;2.60;;;;;;;;;;2330564;57;21122;-75
2022/07/30 06:08:25;;;;;;;7.60;2.65;;;;;;;;;;2576413;53;21040;-75
2022/07/30 06:10:52;;;;;;;3.92;2.50;;;;;;;;;;2332140;57;21067;-75
2022/07/30 06:13:19;;;;;;;5.20;2.40;;;;;;;;;;2333036;57;21083;-75
2022/07/30 06:15:46;;;;;;;4.47;2.70;;;;;;;;;;2331573;57;21047;-74
2022/07/30 06:18:13;;;;;;;3.35;2.25;;;;;;;;;;2332656;57;21039;-75
2022/07/30 06:20:40;;;;;;;4.05;2.05;;;;;;;;;;2330434;57;21602;-76
2022/07/30 06:23:07;;;;;;;9.10;3.00;;;;;;;;;;2331345;57;21605;-74
2022/07/30 06:25:34;;;;;;;5.15;2.50;;;;;;;;;;2332099;57;21083;-76
2022/07/30 06:28:01;;;;;;;6.68;2.60;;;;;;;;;;2331592;57;21067;-77
2022/07/30 06:30:29;;;;;;;9.63;2.40;;;;;;;;;;2332049;57;21103;-77
2022/07/30 06:32:56;;;;;;;6.28;2.47;;;;;;;;;;2332478;57;21546;-75
2022/07/30 06:35:23;;;;;;;4.18;2.40;;;;;;;;;;2331614;57;21637;-76
2022/07/30 06:37:50;;;;;;;4.25;2.40;;;;;;;;;;2331348;57;21135;-75
2022/07/30 06:40:17;;;;;;;5.05;3.08;;;;;;;;;;2331711;57;21064;-75
2022/07/30 06:42:44;;;;;;;4.32;2.37;;;;;;;;;;2574067;53;21066;-77
2022/07/30 06:45:11;;;;;;;2.92;1.98;;;;;;;;;;2331471;57;21031;-75
2022/07/30 06:47:38;;;;;;;4.15;2.10;;;;;;;;;;2331122;57;21051;-75
2022/07/30 06:50:07;;;;;;;3.62;1.98;;;;;;;;;;2331272;57;21044;-74
2022/07/30 06:52:34;;;;;;;5.43;2.22;;;;;;;;;;2331348;57;21075;-76
2022/07/30 06:55:01;;;;;;;3.28;2.40;;;;;;;;;;2330589;57;21569;-75
2022/07/30 06:57:28;;;;;;;3.37;2.60;;;;;;;;;;2328490;57;21613;-75
2022/07/30 06:59:55;;;;;;;5.20;2.28;;;;;;;;;;2570405;53;21118;-75
2022/07/30 07:02:22;;;;;;;3.12;2.00;;;;;;;;;;2328778;57;22203;-74
2022/07/30 07:04:49;;;;;;;4.20;2.50;;;;;;;;;;2328902;57;21550;-75
2022/07/30 07:07:16;;;;;;;4.20;2.30;;;;;;;;;;2330329;57;21723;-79
2022/07/30 07:09:43;;;;;;;3.62;2.22;;;;;;;;;;2331569;57;21113;-77
2022/07/30 07:12:10;;;;;;;4.18;2.20;;;;;;;;;;2331438;57;21103;-77
2022/07/30 07:14:38;;;;;;;2.83;2.20;;;;;;;;;;2331204;57;21056;-77
2022/07/30 07:17:05;;;;;;;4.37;2.35;;;;;;;;;;2331001;57;21135;-77
2022/07/30 07:19:32;;;;;;;3.00;2.10;;;;;;;;;;2332011;57;21056;-78
2022/07/30 07:21:59;;;;;;;3.53;2.15;;;;;;;;;;2330029;57;21043;-77
2022/07/30 07:24:26;;;;;;;3.53;1.90;;;;;;;;;;2331357;57;21055;-76
2022/07/30 07:26:53;;;;;;;3.28;1.92;;;;;;;;;;2331399;57;21048;-77
2022/07/30 07:29:20;;;;;;;3.83;2.00;;;;;;;;;;2575105;53;21079;-77
2022/07/30 07:31:47;;;;;;;4.30;2.33;;;;;;;;;;2331452;57;21071;-78
2022/07/30 07:34:15;;;;;;;4.07;2.30;;;;;;;;;;2332053;57;21035;-78
2022/07/30 07:36:42;;;;;;;5.80;2.10;;;;;;;;;;2330831;57;21566;-78
2022/07/30 07:39:09;;;;;;;3.42;2.10;;;;;;;;;;2331940;57;21052;-78
2022/07/30 07:41:37;;;;;;;7.70;2.55;;;;;;;;;;2331715;57;21048;-78
2022/07/30 07:44:05;;;;;;;3.62;2.30;;;;;;;;;;2331430;57;21864;-78
2022/07/30 07:46:32;;;;;;;2.80;2.25;;;;;;;;;;2331180;57;21681;-78
2022/07/30 07:48:59;;;;;;;6.20;2.05;;;;;;;;;;2331660;57;21063;-80
2022/07/30 07:51:27;;;;;;;3.08;2.10;;;;;;;;;;2331016;57;21625;-78
2022/07/30 07:53:54;;;;;;;3.85;2.10;;;;;;;;;;2330630;57;21663;-78
2022/07/30 07:56:21;;;;;;;2.83;2.20;;;;;;;;;;2331220;57;21060;-78
2022/07/30 07:58:48;;;;;;;3.15;2.37;;;;;;;;;;2332170;57;21147;-78
2022/07/30 08:01:15;;;;;;;4.12;2.10;;;;;;;;;;2572898;53;21100;-78
2022/07/30 08:03:42;;;;;;;6.03;2.25;;;;;;;;;;2575554;53;21045;-78
2022/07/30 08:06:09;;;;;;;3.62;2.17;;;;;;;;;;2331298;57;21116;-75
2022/07/30 08:08:36;;;;;;;4.90;2.10;;;;;;;;;;2332677;57;21107;-75
2022/07/30 08:11:04;;;;;;;2.60;2.08;;;;;;;;;;2332683;57;21526;-75
2022/07/30 08:13:32;;;;;;;4.45;2.20;;;;;;;;;;2332755;57;21132;-76
2022/07/30 08:15:59;;;;;;;4.32;2.20;;;;;;;;;;2331139;57;21067;-75
2022/07/30 08:18:26;;;;;;;6.37;2.28;;;;;;;;;;2332305;57;21210;-75
2022/07/30 08:20:53;;;;;;;3.12;1.90;;;;;;;;;;2332731;57;21539;-75
2022/07/30 08:23:21;;;;;;;4.37;2.55;;;;;;;;;;2332694;57;21067;-76
2022/07/30 08:25:48;;;;;;;5.50;2.40;;;;;;;;;;2332406;57;21086;-75
2022/07/30 08:28:15;;;;;;;2.25;2.00;;;;;;;;;;2332386;57;21064;-74
2022/07/30 08:30:42;;;;;;;5.05;2.22;;;;;;;;;;2331768;57;21685;-75
2022/07/30 08:33:09;;;;;;;4.10;2.22;;;;;;;;;;2576480;53;21048;-75
2022/07/30 08:35:36;;;;;;;4.37;2.72;;;;;;;;;;2332304;57;21591;-75
2022/07/30 08:38:03;;;;;;;2.83;2.12;;;;;;;;;;2332766;57;21052;-74
2022/07/30 08:40:33;;;;;;;4.35;2.40;;;;;;;;;;2332746;57;21052;-74
2022/07/30 08:43:00;;;;;;;3.30;2.35;;;;;;;;;;2332889;57;21574;-74
2022/07/30 08:45:29;;;;;;;4.35;2.28;;;;;;;;;;2331767;57;21565;-75
2022/07/30 08:47:57;;;;;;;5.32;2.47;;;;;;;;;;2332457;57;21043;-75
2022/07/30 08:50:24;;;;;;;4.47;2.25;;;;;;;;;;2576747;53;21051;-75
2022/07/30 08:52:54;;;;;;;4.57;2.20;;;;;;;;;;2332756;57;21063;-74
2022/07/30 08:55:21;;;;;;;3.83;2.37;;;;;;;;;;2332342;57;21553;-75
2022/07/30 08:57:49;;;;;;;4.15;2.12;;;;;;;;;;2332659;57;21143;-75
2022/07/30 09:00:17;;;;;;;4.78;2.30;;;;;;;;;;2332308;57;21055;-76
2022/07/30 09:02:44;;;;;;;3.97;2.30;;;;;;;;;;2332915;57;21048;-74
2022/07/30 09:05:11;;;;;;;3.42;2.15;;;;;;;;;;2331603;57;21632;-75
2022/07/30 09:07:39;;;;;;;3.97;2.25;;;;;;;;;;2332415;57;21059;-75
2022/07/30 09:10:07;;;;;;;3.80;2.30;;;;;;;;;;2332779;57;21039;-74
2022/07/30 09:12:35;;;;;;;7.45;2.42;;;;;;;;;;2332511;57;21031;-76
2022/07/30 09:15:04;;;;;;;10.68;3.05;;;;;;;;;;2576650;53;21437;-74
2022/07/30 09:17:42;;;;;;;5.70;2.62;;;;;;;;;;2576217;53;21091;-74
2022/07/30 09:20:10;;;;;;;3.72;2.70;;;;;;;;;;2332301;57;21062;-75
2022/07/30 09:22:42;;;;;;;3.70;2.45;;;;;;;;;;2576640;53;21146;-76
2022/07/30 09:25:10;;;;;;;5.07;2.35;;;;;;;;;;2332638;57;21597;-75
2022/07/30 09:27:44;;;;;;;5.45;2.40;;;;;;;;;;2331916;57;21554;-74
2022/07/30 09:30:12;;;;;;;6.20;3.08;;;;;;;;;;2332469;57;21550;-74
2022/07/30 09:32:47;;;;;;;3.47;2.22;;;;;;;;;;2332959;57;21067;-74
2022/07/30 09:35:15;;;;;;;3.03;2.10;;;;;;;;;;2332267;57;21127;-75
2022/07/30 09:37:43;;;;;;;3.97;2.20;;;;;;;;;;2331661;57;21174;-75
2022/07/30 09:40:14;;;;;;;4.35;2.70;;;;;;;;;;2332741;57;21056;-74
2022/07/30 09:42:42;;;;;;;16.23;4.50;;;;;;;;;;2332419;57;21063;-75
2022/07/30 09:45:11;;;;;;;5.20;3.30;;;;;;;;;;2575783;53;21115;-75
2022/07/30 09:47:38;;;;;;;6.43;2.92;;;;;;;;;;2332291;57;21060;-74
2022/07/30 09:50:06;;;;;;;3.42;2.40;;;;;;;;;;2331249;57;22337;-75
2022/07/30 09:52:34;;;;;;;7.62;2.80;;;;;;;;;;2332466;57;21548;-75
2022/07/30 09:55:01;;;;;;;4.50;3.05;;;;;;;;;;2332110;57;21130;-75
2022/07/30 09:57:28;;;;;;;5.45;2.70;;;;;;;;;;2332455;57;21570;-74
2022/07/30 09:59:56;;;;;;;5.25;3.17;;;;;;;;;;2331613;57;21609;-74
2022/07/30 10:02:28;;;;;;;6.18;2.75;;;;;;;;;;2332016;57;21056;-75
2022/07/30 10:05:08;;;;;;;4.12;2.40;;;;;;;;;;2332472;57;21064;-74
2022/07/30 10:07:35;;;;;;;7.47;2.60;;;;;;;;;;2332284;57;21056;-75
2022/07/30 10:10:03;;;;;;;5.68;2.97;;;;;;;;;;2332851;57;21079;-76
2022/07/30 10:12:32;;;;;;;4.62;3.12;;;;;;;;;;2332576;57;21052;-75
2022/07/30 10:15:01;;;;;;;6.07;3.10;;;;;;;;;;2331703;57;21079;-77
2022/07/30 10:17:30;;;;;;;6.18;3.00;;;;;;;;;;2329675;57;21642;-77
2022/07/30 10:19:57;;;;;;;7.10;2.72;;;;;;;;;;2329287;57;21107;-77
2022/07/30 10:22:24;;;;;;;4.72;2.35;;;;;;;;;;2331526;57;21159;-78
2022/07/30 10:24:53;;;;;;;4.12;2.25;;;;;;;;;;2331762;57;21147;-78
2022/07/30 10:27:20;;;;;;;5.12;2.60;;;;;;;;;;2331197;57;21139;-77
2022/07/30 10:29:47;;;;;;;2.97;2.28;;;;;;;;;;2330310;57;21080;-77
2022/07/30 10:32:14;;;;;;;4.60;2.30;;;;;;;;;;2330354;57;21048;-77
2022/07/30 10:34:42;;;;;;;5.07;3.05;;;;;;;;;;2331559;57;21060;-78
2022/07/30 10:37:11;;;;;;;6.60;2.72;;;;;;;;;;2331101;57;21107;-77
2022/07/30 10:39:43;;;;;;;11.98;3.05;;;;;;;;;;2575184;53;21052;-77
2022/07/30 10:42:17;;;;;;;15.37;3.97;;;;;;;;;;2331649;57;21139;-77
2022/07/30 10:45:11;;;;;;;21.75;4.90;;;;;;;;;;2330877;57;21142;-80
2022/07/30 10:47:39;;;;;;;13.65;4.68;;;;;;;;;;2575023;53;21047;-78
2022/07/30 10:50:08;;;;;;;19.73;4.75;;;;;;;;;;2575275;53;21127;-78
2022/07/30 10:52:45;;;;;;;26.20;6.87;;;;;;;;;;2575027;53;21047;-78
2022/07/30 10:55:13;;;;;;;13.93;4.47;;;;;;;;;;2575170;53;21127;-79
2022/07/30 10:57:57;;;;;;;65.82;12.82;;;;;;;;;;2575152;53;21056;-78
2022/07/30 11:00:25;;;;;;;52.78;12.48;;;;;;;;;;2331024;57;21561;-79
2022/07/30 11:03:10;;;;;;;60.60;14.15;;;;;;;;;;2330812;57;21052;-77
2022/07/30 11:05:37;;;;;;;78.75;17.62;;;;;;;;;;2330778;57;21107;-79
2022/07/30 11:08:24;;;;;;;65.45;16.00;;;;;;;;;;2330695;57;21063;-78
2022/07/30 11:10:51;;;;;;;59.13;14.82;;;;;;;;;;2574506;53;21167;-77
2022/07/30 11:13:18;;;;;;;13.62;5.15;;;;;;;;;;2574652;53;21044;-77
2022/07/30 11:15:56;;;;;;;20.90;5.85;;;;;;;;;;2331060;57;21059;-76
2022/07/30 11:18:42;;;;;;;6.35;2.90;;;;;;;;;;2330202;57;21115;-78
2022/07/30 11:21:19;;;;;;;4.40;2.92;;;;;;;;;;2306441;58;21058;-73
2022/07/30 11:23:47;;;;;;;3.65;2.40;;;;;;;;;;2306944;58;22177;-74
2022/07/30 11:26:33;;;;;;;8.32;3.10;;;;;;;;;;2382161;54;21126;-74
2022/07/30 11:29:00;;;;;;;6.80;3.00;;;;;;;;;;2299605;58;21500;-73
2022/07/30 11:34:35;;;;;;;4.87;2.90;;;;;;;;;;2444140;54;22182;-74
2022/07/30 11:37:07;;;;;;;4.82;2.40;;;;;;;;;;2274747;58;21067;-75
2022/07/30 11:39:53;;;;;;;4.47;2.58;;;;;;;;;;2304978;58;21060;-72
2022/07/30 11:42:24;;;;;;;5.30;2.60;;;;;;;;;;2317362;58;21139;-74
2022/07/30 11:44:52;;;;;;;6.68;2.72;;;;;;;;;;2317153;58;21568;-75
2022/07/30 11:47:19;;;;;;;4.30;2.22;;;;;;;;;;2316736;58;21141;-74
2022/07/30 11:49:46;;;;;;;10.25;3.25;;;;;;;;;;2317359;58;22131;-74
2022/07/30 11:52:22;;;;;;;21.75;4.45;;;;;;;;;;2510139;54;21064;-74
2022/07/30 11:54:52;;;;;;;11.20;3.10;;;;;;;;;;2317483;58;22154;-75
2022/07/30 11:57:20;;;;;;;6.35;2.75;;;;;;;;;;2317399;58;21136;-77
2022/07/30 11:59:53;;;;;;;4.03;2.53;;;;;;;;;;2316800;58;21077;-76
2022/07/30 12:02:26;;;;;;;4.90;2.33;;;;;;;;;;2317293;58;21068;-77
2022/07/30 12:04:53;;;;;;;9.32;2.45;;;;;;;;;;2317250;58;21545;-77
2022/07/30 12:07:22;;;;;;;7.60;2.60;;;;;;;;;;2317289;58;21624;-78
2022/07/30 12:09:49;;;;;;;3.75;2.70;;;;;;;;;;2318041;58;21920;-79
2022/07/30 12:12:23;;;;;;;6.50;3.67;;;;;;;;;;2483916;54;21065;-77
2022/07/30 12:14:49;;;;;;;;;;;;;;;;;;2321202;58;21068;-77
2022/07/30 12:17:16;;;;;;;4.40;2.92;;;;;;;;;;2414578;54;20076;-77
2022/07/30 12:19:44;;;;;;;5.90;2.90;;;;;;;;;;2364978;54;21060;-77
2022/07/30 12:22:11;;;;;;;6.30;3.05;;;;;;;;;;2316928;58;21207;-78
2022/07/30 12:24:38;;;;;;;5.12;2.90;;;;;;;;;;2317797;58;21084;-79
2022/07/30 12:27:06;;;;;;;5.62;2.85;;;;;;;;;;2317228;58;21568;-77
2022/07/30 12:29:34;;;;;;;6.30;3.12;;;;;;;;;;2357848;54;21539;-76
2022/07/30 12:32:01;;;;;;;7.05;3.37;;;;;;;;;;2395284;54;21692;-76
2022/07/30 12:34:28;;;;;;;5.60;3.20;;;;;;;;;;2316893;58;21061;-76
2022/07/30 12:36:55;;;;;;;8.68;3.20;;;;;;;;;;2317046;58;21048;-77
2022/07/30 12:39:24;;;;;;;5.95;3.37;;;;;;;;;;2317467;58;21048;-76
2022/07/30 12:41:52;;;;;;;7.75;4.53;;;;;;;;;;2319210;54;21679;-77
2022/07/30 12:44:34;;;;;;;8.57;3.97;;;;;;;;;;2317272;58;21053;-77
2022/07/30 12:47:01;;;;;;;9.80;3.58;;;;;;;;;;2316373;58;21057;-78
2022/07/30 12:49:29;;;;;;;4.15;3.22;;;;;;;;;;2316117;56;21061;-76
2022/07/30 12:51:56;;;;;;;7.80;3.60;;;;;;;;;;2316605;58;21128;-76
2022/07/30 12:54:23;;;;;;;5.40;3.25;;;;;;;;;;2315250;58;21048;-76
2022/07/30 12:59:34;;;;;;;7.10;3.58;;;;;;;;;;2483719;53;22171;-76
2022/07/30 13:02:02;;;;;;;6.47;3.20;;;;;;;;;;2347032;57;21132;-76
2022/07/30 13:04:30;;;;;;;5.15;3.17;;;;;;;;;;2346574;54;21089;-76
2022/07/30 13:07:04;;;;;;;10.85;4.12;;;;;;;;;;2346709;57;21046;-76
2022/07/30 13:09:30;;;;;;;;;;;;;;;;;;2349977;55;21094;-77
2022/07/30 13:11:57;;;;;;;8.52;3.50;;;;;;;;;;2347079;57;20194;-76
2022/07/30 13:14:24;;;;;;;4.68;3.47;;;;;;;;;;2538984;53;21113;-76
2022/07/30 13:16:53;;;;;;;5.28;3.37;;;;;;;;;;2345269;57;21605;-77
2022/07/30 13:19:20;;;;;;;6.20;3.00;;;;;;;;;;2402281;53;21072;-76
2022/07/30 13:21:47;;;;;;;7.47;3.65;;;;;;;;;;2346270;57;21113;-76
2022/07/30 13:24:14;;;;;;;4.60;2.95;;;;;;;;;;2346788;57;21058;-76
2022/07/30 13:26:42;;;;;;;7.85;3.45;;;;;;;;;;2346791;57;21117;-76
2022/07/30 13:29:10;;;;;;;3.87;3.12;;;;;;;;;;2402071;53;21157;-76
2022/07/30 13:31:37;;;;;;;5.00;2.47;;;;;;;;;;2346990;57;21053;-76
2022/07/30 13:34:04;;;;;;;4.53;3.12;;;;;;;;;;2346827;57;21618;-76
2022/07/30 13:36:31;;;;;;;7.72;3.37;;;;;;;;;;2346295;57;21030;-77
2022/07/30 13:38:58;;;;;;;7.78;3.60;;;;;;;;;;2347012;57;21191;-76
2022/07/30 13:41:25;;;;;;;6.45;3.22;;;;;;;;;;2346836;57;21545;-76
2022/07/30 13:43:52;;;;;;;6.43;3.03;;;;;;;;;;2346161;57;21357;-76
2022/07/30 13:46:19;;;;;;;4.85;3.28;;;;;;;;;;2346230;57;21029;-76
2022/07/30 13:48:46;;;;;;;5.90;3.62;;;;;;;;;;2347044;57;21057;-76
2022/07/30 13:51:13;;;;;;;4.72;2.90;;;;;;;;;;2347393;57;21037;-77
2022/07/30 13:53:41;;;;;;;5.10;3.30;;;;;;;;;;2346335;57;21094;-76
2022/07/30 13:56:08;;;;;;;6.35;2.80;;;;;;;;;;2346748;57;21049;-76
2022/07/30 13:58:35;;;;;;;6.35;2.85;;;;;;;;;;2346402;57;21610;-76
2022/07/30 14:01:02;;;;;;;8.57;3.08;;;;;;;;;;2346835;57;21061;-76
2022/07/30 14:03:29;;;;;;;8.68;3.08;;;;;;;;;;2347051;57;21054;-76
2022/07/30 14:05:56;;;;;;;6.47;3.00;;;;;;;;;;2593512;53;21038;-76
2022/07/30 14:08:24;;;;;;;5.30;3.15;;;;;;;;;;2460678;53;21056;-76
2022/07/30 14:10:51;;;;;;;5.85;2.87;;;;;;;;;;2592604;53;21025;-76
2022/07/30 14:13:18;;;;;;;5.62;3.12;;;;;;;;;;2344489;57;21038;-76
2022/07/30 14:15:45;;;;;;;5.78;3.08;;;;;;;;;;2345063;57;21648;-75
2022/07/30 14:18:12;;;;;;;4.78;3.17;;;;;;;;;;2351462;53;21121;-76
2022/07/30 14:20:39;;;;;;;6.40;2.92;;;;;;;;;;2345587;57;21054;-76
2022/07/30 14:23:06;;;;;;;9.15;3.03;;;;;;;;;;2346014;57;21042;-76
2022/07/30 14:25:33;;;;;;;4.15;2.95;;;;;;;;;;2345708;57;21661;-75
2022/07/30 14:28:00;;;;;;;5.97;3.00;;;;;;;;;;2345691;57;21089;-76
2022/07/30 14:30:29;;;;;;;4.50;3.10;;;;;;;;;;2348769;53;21633;-76
2022/07/30 14:32:56;;;;;;;4.47;2.58;;;;;;;;;;2346095;57;21318;-77
2022/07/30 14:35:23;;;;;;;3.55;2.83;;;;;;;;;;2345352;57;21049;-77
2022/07/30 14:37:50;;;;;;;5.12;3.25;;;;;;;;;;2345982;57;21649;-76
2022/07/30 14:40:17;;;;;;;6.75;3.10;;;;;;;;;;2344901;57;22199;-76
2022/07/30 14:42:46;;;;;;;6.75;2.72;;;;;;;;;;2350683;53;21097;-75
2022/07/30 14:45:13;;;;;;;4.37;3.30;;;;;;;;;;2345834;55;21037;-76
2022/07/30 14:47:41;;;;;;;5.20;2.70;;;;;;;;;;2345038;57;21101;-76
2022/07/30 14:50:08;;;;;;;6.68;2.90;;;;;;;;;;2366645;53;21089;-76
2022/07/30 14:52:37;;;;;;;3.70;2.78;;;;;;;;;;2346347;55;21041;-79
2022/07/30 14:55:05;;;;;;;4.62;2.62;;;;;;;;;;2345664;57;21129;-76
2022/07/30 14:57:32;;;;;;;6.53;3.12;;;;;;;;;;2345133;57;21339;-75
2022/07/30 15:00:00;;;;;;;4.87;3.08;;;;;;;;;;2345720;57;21061;-76